Terminal Aerodrome Forecast
Issued by NWS Twin Cities, MN

Home | Current Version | Previous Version | Text Only | Print | Product List | Glossary On
Versions: 1 2 3 4 5 6 7 8 9 10 11 12 13 14 15 16 17 18
000
FTUS43 KMPX 230300 AAA
TAFSTC
TAF AMD
KSTC 230350Z 2304/2324 15010KT 1/2SM FG VV002
      TEMPO 2304/2308 1/4SM FG VV001
     FM231200 22005KT 2SM BR OVC005
     FM231900 28008KT 6SM BR FEW006 OVC050=

USA.gov is the U.S. government's official web portal to all federal, state and local government web resources and services.